sensor_id;sensor_type;location;lat;lon;timestamp;P1;durP1;ratioP1;P2;durP2;ratioP2
10910;SDS011;5508;49.150;11.030;2023-11-19T00:01:01;6.63;;;6.03;;
10910;SDS011;5508;49.150;11.030;2023-11-19T00:04:05;6.40;;;5.80;;
10910;SDS011;5508;49.150;11.030;2023-11-19T00:07:06;6.67;;;5.33;;
10910;SDS011;5508;49.150;11.030;2023-11-19T00:10:11;7.13;;;6.00;;
10910;SDS011;5508;49.150;11.030;2023-11-19T00:13:12;9.70;;;6.30;;
10910;SDS011;5508;49.150;11.030;2023-11-19T00:16:13;6.83;;;5.60;;
10910;SDS011;5508;49.150;11.030;2023-11-19T00:19:14;6.00;;;5.37;;
10910;SDS011;5508;49.150;11.030;2023-11-19T00:22:15;6.47;;;5.07;;
10910;SDS011;5508;49.150;11.030;2023-11-19T00:25:15;5.70;;;5.20;;
10910;SDS011;5508;49.150;11.030;2023-11-19T00:28:16;7.00;;;6.30;;
10910;SDS011;5508;49.150;11.030;2023-11-19T00:31:17;8.07;;;6.37;;
10910;SDS011;5508;49.150;11.030;2023-11-19T00:34:18;8.57;;;7.17;;
10910;SDS011;5508;49.150;11.030;2023-11-19T00:37:21;7.63;;;6.57;;
10910;SDS011;5508;49.150;11.030;2023-11-19T00:40:21;10.90;;;6.37;;
10910;SDS011;5508;49.150;11.030;2023-11-19T00:43:23;7.50;;;6.80;;
10910;SDS011;5508;49.150;11.030;2023-11-19T00:46:23;8.37;;;7.47;;
10910;SDS011;5508;49.150;11.030;2023-11-19T00:49:24;7.83;;;7.03;;
10910;SDS011;5508;49.150;11.030;2023-11-19T00:52:24;8.50;;;7.60;;
10910;SDS011;5508;49.150;11.030;2023-11-19T00:55:25;11.50;;;8.50;;
10910;SDS011;5508;49.150;11.030;2023-11-19T00:58:26;10.63;;;9.10;;
10910;SDS011;5508;49.150;11.030;2023-11-19T01:01:27;9.63;;;8.60;;
10910;SDS011;5508;49.150;11.030;2023-11-19T01:04:27;11.73;;;10.53;;
10910;SDS011;5508;49.150;11.030;2023-11-19T01:07:28;12.57;;;9.80;;
10910;SDS011;5508;49.150;11.030;2023-11-19T01:10:28;12.40;;;10.47;;
10910;SDS011;5508;49.150;11.030;2023-11-19T01:13:29;11.77;;;10.03;;
10910;SDS011;5508;49.150;11.030;2023-11-19T01:16:30;11.50;;;10.30;;
10910;SDS011;5508;49.150;11.030;2023-11-19T01:19:30;12.77;;;10.57;;
10910;SDS011;5508;49.150;11.030;2023-11-19T01:22:31;14.17;;;10.90;;
10910;SDS011;5508;49.150;11.030;2023-11-19T01:25:32;11.37;;;10.17;;
10910;SDS011;5508;49.150;11.030;2023-11-19T01:28:34;12.03;;;9.57;;
10910;SDS011;5508;49.150;11.030;2023-11-19T01:31:34;13.10;;;10.97;;
10910;SDS011;5508;49.150;11.030;2023-11-19T01:34:35;12.23;;;10.20;;
10910;SDS011;5508;49.150;11.030;2023-11-19T01:37:36;12.03;;;10.23;;
10910;SDS011;5508;49.150;11.030;2023-11-19T01:40:36;12.93;;;11.20;;
10910;SDS011;5508;49.150;11.030;2023-11-19T01:43:37;12.17;;;9.93;;
10910;SDS011;5508;49.150;11.030;2023-11-19T01:46:42;11.83;;;10.60;;
10910;SDS011;5508;49.150;11.030;2023-11-19T01:49:47;14.30;;;10.70;;
10910;SDS011;5508;49.150;11.030;2023-11-19T01:52:47;12.30;;;10.83;;
10910;SDS011;5508;49.150;11.030;2023-11-19T01:55:48;12.23;;;10.30;;
10910;SDS011;5508;49.150;11.030;2023-11-19T01:58:50;12.53;;;10.63;;
10910;SDS011;5508;49.150;11.030;2023-11-19T02:01:51;12.20;;;10.50;;
10910;SDS011;5508;49.150;11.030;2023-11-19T02:04:52;12.80;;;10.33;;
10910;SDS011;5508;49.150;11.030;2023-11-19T02:07:53;13.90;;;10.90;;
10910;SDS011;5508;49.150;11.030;2023-11-19T02:10:54;12.13;;;10.27;;
10910;SDS011;5508;49.150;11.030;2023-11-19T02:13:57;13.97;;;10.80;;
10910;SDS011;5508;49.150;11.030;2023-11-19T02:16:59;11.30;;;10.03;;
10910;SDS011;5508;49.150;11.030;2023-11-19T02:20:00;13.17;;;10.70;;
10910;SDS011;5508;49.150;11.030;2023-11-19T02:23:01;11.60;;;10.30;;
10910;SDS011;5508;49.150;11.030;2023-11-19T02:29:21;11.70;;;9.60;;
10910;SDS011;5508;49.150;11.030;2023-11-19T02:32:22;12.70;;;10.27;;
10910;SDS011;5508;49.150;11.030;2023-11-19T02:35:25;11.87;;;9.93;;
10910;SDS011;5508;49.150;11.030;2023-11-19T02:38:26;11.67;;;10.07;;
10910;SDS011;5508;49.150;11.030;2023-11-19T02:41:27;11.47;;;9.97;;
10910;SDS011;5508;49.150;11.030;2023-11-19T02:44:27;12.30;;;9.27;;
10910;SDS011;5508;49.150;11.030;2023-11-19T02:47:30;10.33;;;9.23;;
10910;SDS011;5508;49.150;11.030;2023-11-19T02:50:31;10.90;;;8.83;;
10910;SDS011;5508;49.150;11.030;2023-11-19T02:53:32;10.40;;;9.30;;
10910;SDS011;5508;49.150;11.030;2023-11-19T02:56:32;10.73;;;9.63;;
10910;SDS011;5508;49.150;11.030;2023-11-19T02:59:38;10.10;;;8.67;;
10910;SDS011;5508;49.150;11.030;2023-11-19T03:02:41;11.17;;;9.80;;
10910;SDS011;5508;49.150;11.030;2023-11-19T03:05:49;11.40;;;9.40;;
10910;SDS011;5508;49.150;11.030;2023-11-19T03:08:49;12.00;;;10.37;;
10910;SDS011;5508;49.150;11.030;2023-11-19T03:11:50;11.30;;;9.93;;
10910;SDS011;5508;49.150;11.030;2023-11-19T03:14:51;13.00;;;10.30;;
10910;SDS011;5508;49.150;11.030;2023-11-19T03:17:51;11.37;;;10.17;;
10910;SDS011;5508;49.150;11.030;2023-11-19T03:20:52;14.53;;;11.13;;
10910;SDS011;5508;49.150;11.030;2023-11-19T03:23:52;12.10;;;10.10;;
10910;SDS011;5508;49.150;11.030;2023-11-19T03:26:53;11.40;;;9.63;;
10910;SDS011;5508;49.150;11.030;2023-11-19T03:29:54;10.80;;;9.70;;
10910;SDS011;5508;49.150;11.030;2023-11-19T03:32:55;10.50;;;9.40;;
10910;SDS011;5508;49.150;11.030;2023-11-19T03:35:56;12.20;;;9.80;;
10910;SDS011;5508;49.150;11.030;2023-11-19T03:38:57;12.43;;;9.40;;
10910;SDS011;5508;49.150;11.030;2023-11-19T03:41:57;11.90;;;9.83;;
10910;SDS011;5508;49.150;11.030;2023-11-19T03:44:58;10.67;;;9.13;;
10910;SDS011;5508;49.150;11.030;2023-11-19T03:47:59;12.60;;;10.30;;
10910;SDS011;5508;49.150;11.030;2023-11-19T03:51:00;11.90;;;9.83;;
10910;SDS011;5508;49.150;11.030;2023-11-19T03:54:00;15.87;;;10.03;;
10910;SDS011;5508;49.150;11.030;2023-11-19T03:57:01;13.47;;;9.27;;
10910;SDS011;5508;49.150;11.030;2023-11-19T04:00:03;10.47;;;8.67;;
10910;SDS011;5508;49.150;11.030;2023-11-19T04:03:13;11.33;;;9.00;;
10910;SDS011;5508;49.150;11.030;2023-11-19T04:06:14;11.63;;;9.60;;
10910;SDS011;5508;49.150;11.030;2023-11-19T04:09:15;10.83;;;8.43;;
10910;SDS011;5508;49.150;11.030;2023-11-19T04:12:16;9.27;;;8.27;;
10910;SDS011;5508;49.150;11.030;2023-11-19T04:15:16;9.43;;;7.80;;
10910;SDS011;5508;49.150;11.030;2023-11-19T04:18:17;9.13;;;7.63;;
10910;SDS011;5508;49.150;11.030;2023-11-19T04:21:17;9.47;;;7.70;;
10910;SDS011;5508;49.150;11.030;2023-11-19T04:24:18;7.03;;;6.30;;
10910;SDS011;5508;49.150;11.030;2023-11-19T04:27:19;7.87;;;6.40;;
10910;SDS011;5508;49.150;11.030;2023-11-19T04:30:19;6.93;;;6.23;;
10910;SDS011;5508;49.150;11.030;2023-11-19T04:33:20;7.40;;;6.30;;
10910;SDS011;5508;49.150;11.030;2023-11-19T04:36:20;7.23;;;6.17;;
10910;SDS011;5508;49.150;11.030;2023-11-19T04:39:24;7.10;;;6.17;;
10910;SDS011;5508;49.150;11.030;2023-11-19T04:42:24;8.50;;;6.40;;
10910;SDS011;5508;49.150;11.030;2023-11-19T04:45:25;6.70;;;5.87;;
10910;SDS011;5508;49.150;11.030;2023-11-19T04:48:26;6.40;;;5.80;;
10910;SDS011;5508;49.150;11.030;2023-11-19T04:51:26;6.37;;;5.73;;
10910;SDS011;5508;49.150;11.030;2023-11-19T04:54:27;6.73;;;5.77;;
10910;SDS011;5508;49.150;11.030;2023-11-19T04:57:27;6.47;;;5.10;;
10910;SDS011;5508;49.150;11.030;2023-11-19T05:00:28;6.60;;;5.57;;
10910;SDS011;5508;49.150;11.030;2023-11-19T05:03:28;7.33;;;5.40;;
10910;SDS011;5508;49.150;11.030;2023-11-19T05:06:30;6.47;;;5.77;;
10910;SDS011;5508;49.150;11.030;2023-11-19T05:09:31;6.57;;;5.60;;
10910;SDS011;5508;49.150;11.030;2023-11-19T05:12:32;5.83;;;5.23;;
10910;SDS011;5508;49.150;11.030;2023-11-19T05:15:32;6.93;;;5.60;;
10910;SDS011;5508;49.150;11.030;2023-11-19T05:18:33;5.43;;;4.93;;
10910;SDS011;5508;49.150;11.030;2023-11-19T05:21:34;5.83;;;5.07;;
10910;SDS011;5508;49.150;11.030;2023-11-19T05:24:35;6.93;;;5.77;;
10910;SDS011;5508;49.150;11.030;2023-11-19T05:27:36;6.00;;;5.40;;
10910;SDS011;5508;49.150;11.030;2023-11-19T05:30:37;6.10;;;5.50;;
10910;SDS011;5508;49.150;11.030;2023-11-19T05:33:38;4.33;;;3.93;;
10910;SDS011;5508;49.150;11.030;2023-11-19T05:36:38;5.43;;;4.87;;
10910;SDS011;5508;49.150;11.030;2023-11-19T05:39:39;4.10;;;3.70;;
10910;SDS011;5508;49.150;11.030;2023-11-19T05:42:40;4.03;;;3.63;;
10910;SDS011;5508;49.150;11.030;2023-11-19T05:45:41;4.10;;;3.70;;
10910;SDS011;5508;49.150;11.030;2023-11-19T05:48:41;5.20;;;4.33;;
10910;SDS011;5508;49.150;11.030;2023-11-19T05:51:42;3.50;;;3.20;;
10910;SDS011;5508;49.150;11.030;2023-11-19T05:54:43;4.60;;;4.10;;
10910;SDS011;5508;49.150;11.030;2023-11-19T05:57:43;4.60;;;4.20;;
10910;SDS011;5508;49.150;11.030;2023-11-19T06:00:44;4.23;;;3.83;;
10910;SDS011;5508;49.150;11.030;2023-11-19T06:03:47;4.30;;;3.70;;
10910;SDS011;5508;49.150;11.030;2023-11-19T06:06:49;4.07;;;3.63;;
10910;SDS011;5508;49.150;11.030;2023-11-19T06:09:50;4.20;;;3.73;;
10910;SDS011;5508;49.150;11.030;2023-11-19T06:12:51;4.77;;;4.27;;
10910;SDS011;5508;49.150;11.030;2023-11-19T06:15:56;5.27;;;4.60;;
10910;SDS011;5508;49.150;11.030;2023-11-19T06:18:56;4.90;;;4.43;;
10910;SDS011;5508;49.150;11.030;2023-11-19T06:21:57;5.70;;;5.10;;
10910;SDS011;5508;49.150;11.030;2023-11-19T06:24:57;5.70;;;4.30;;
10910;SDS011;5508;49.150;11.030;2023-11-19T06:27:58;8.40;;;5.60;;
10910;SDS011;5508;49.150;11.030;2023-11-19T06:30:59;6.70;;;6.00;;
10910;SDS011;5508;49.150;11.030;2023-11-19T06:33:59;9.77;;;7.33;;
10910;SDS011;5508;49.150;11.030;2023-11-19T06:37:00;6.73;;;5.60;;
10910;SDS011;5508;49.150;11.030;2023-11-19T06:40:03;8.07;;;6.10;;
10910;SDS011;5508;49.150;11.030;2023-11-19T06:43:05;8.50;;;6.47;;
10910;SDS011;5508;49.150;11.030;2023-11-19T06:46:15;8.70;;;7.80;;
10910;SDS011;5508;49.150;11.030;2023-11-19T06:49:19;6.40;;;5.80;;
10910;SDS011;5508;49.150;11.030;2023-11-19T06:52:19;6.87;;;6.20;;
10910;SDS011;5508;49.150;11.030;2023-11-19T06:55:20;9.27;;;8.27;;
10910;SDS011;5508;49.150;11.030;2023-11-19T06:58:20;7.30;;;6.60;;
10910;SDS011;5508;49.150;11.030;2023-11-19T07:01:21;6.63;;;5.93;;
10910;SDS011;5508;49.150;11.030;2023-11-19T07:04:22;7.57;;;6.27;;
10910;SDS011;5508;49.150;11.030;2023-11-19T07:07:22;8.60;;;7.07;;
10910;SDS011;5508;49.150;11.030;2023-11-19T07:10:23;7.23;;;6.50;;
10910;SDS011;5508;49.150;11.030;2023-11-19T07:13:23;9.97;;;6.80;;
10910;SDS011;5508;49.150;11.030;2023-11-19T07:16:24;8.27;;;6.30;;
10910;SDS011;5508;49.150;11.030;2023-11-19T07:19:24;7.50;;;6.60;;
10910;SDS011;5508;49.150;11.030;2023-11-19T07:22:25;6.37;;;5.77;;
10910;SDS011;5508;49.150;11.030;2023-11-19T07:25:26;6.40;;;5.80;;
10910;SDS011;5508;49.150;11.030;2023-11-19T07:28:27;7.43;;;6.10;;
10910;SDS011;5508;49.150;11.030;2023-11-19T07:31:28;7.80;;;5.70;;
10910;SDS011;5508;49.150;11.030;2023-11-19T07:34:29;6.60;;;6.00;;
10910;SDS011;5508;49.150;11.030;2023-11-19T07:37:29;6.80;;;5.67;;
10910;SDS011;5508;49.150;11.030;2023-11-19T07:40:30;6.47;;;5.73;;
10910;SDS011;5508;49.150;11.030;2023-11-19T07:43:31;8.47;;;7.20;;
10910;SDS011;5508;49.150;11.030;2023-11-19T07:46:31;7.70;;;6.00;;
10910;SDS011;5508;49.150;11.030;2023-11-19T07:49:32;8.17;;;6.63;;
10910;SDS011;5508;49.150;11.030;2023-11-19T07:52:33;10.93;;;8.27;;
10910;SDS011;5508;49.150;11.030;2023-11-19T07:55:34;7.17;;;6.47;;
10910;SDS011;5508;49.150;11.030;2023-11-19T07:58:34;5.87;;;5.27;;
10910;SDS011;5508;49.150;11.030;2023-11-19T08:01:36;6.43;;;5.50;;
10910;SDS011;5508;49.150;11.030;2023-11-19T08:04:37;4.90;;;4.40;;
10910;SDS011;5508;49.150;11.030;2023-11-19T08:07:39;5.87;;;4.80;;
10910;SDS011;5508;49.150;11.030;2023-11-19T08:10:40;6.77;;;5.93;;
10910;SDS011;5508;49.150;11.030;2023-11-19T08:13:41;6.80;;;4.70;;
10910;SDS011;5508;49.150;11.030;2023-11-19T08:16:42;8.07;;;6.20;;
10910;SDS011;5508;49.150;11.030;2023-11-19T08:19:42;9.17;;;7.93;;
10910;SDS011;5508;49.150;11.030;2023-11-19T08:22:43;5.87;;;4.83;;
10910;SDS011;5508;49.150;11.030;2023-11-19T08:25:43;5.33;;;3.70;;
10910;SDS011;5508;49.150;11.030;2023-11-19T08:28:44;2.00;;;1.80;;
10910;SDS011;5508;49.150;11.030;2023-11-19T08:31:44;4.30;;;3.37;;
10910;SDS011;5508;49.150;11.030;2023-11-19T08:34:45;3.30;;;1.80;;
10910;SDS011;5508;49.150;11.030;2023-11-19T08:37:46;2.87;;;1.60;;
10910;SDS011;5508;49.150;11.030;2023-11-19T08:40:46;2.00;;;1.80;;
10910;SDS011;5508;49.150;11.030;2023-11-19T08:43:47;3.13;;;1.70;;
10910;SDS011;5508;49.150;11.030;2023-11-19T08:46:50;5.50;;;3.23;;
10910;SDS011;5508;49.150;11.030;2023-11-19T08:49:51;2.07;;;1.60;;
10910;SDS011;5508;49.150;11.030;2023-11-19T08:52:52;3.40;;;2.20;;
10910;SDS011;5508;49.150;11.030;2023-11-19T08:55:53;1.63;;;1.53;;
10910;SDS011;5508;49.150;11.030;2023-11-19T08:58:53;7.33;;;3.77;;
10910;SDS011;5508;49.150;11.030;2023-11-19T09:01:54;8.67;;;5.00;;
10910;SDS011;5508;49.150;11.030;2023-11-19T09:04:55;2.43;;;2.03;;
10910;SDS011;5508;49.150;11.030;2023-11-19T09:07:55;5.50;;;3.00;;
10910;SDS011;5508;49.150;11.030;2023-11-19T09:10:56;3.77;;;2.77;;
10910;SDS011;5508;49.150;11.030;2023-11-19T09:13:57;4.93;;;1.70;;
10910;SDS011;5508;49.150;11.030;2023-11-19T09:16:58;3.00;;;2.03;;
10910;SDS011;5508;49.150;11.030;2023-11-19T09:19:59;3.07;;;2.00;;
10910;SDS011;5508;49.150;11.030;2023-11-19T09:22:59;2.63;;;2.17;;
10910;SDS011;5508;49.150;11.030;2023-11-19T09:26:00;4.53;;;2.70;;
10910;SDS011;5508;49.150;11.030;2023-11-19T09:29:01;3.00;;;2.33;;
10910;SDS011;5508;49.150;11.030;2023-11-19T09:32:02;2.10;;;1.27;;
10910;SDS011;5508;49.150;11.030;2023-11-19T09:35:03;2.10;;;1.77;;
10910;SDS011;5508;49.150;11.030;2023-11-19T09:38:04;3.10;;;2.10;;
10910;SDS011;5508;49.150;11.030;2023-11-19T09:41:05;2.37;;;1.83;;
10910;SDS011;5508;49.150;11.030;2023-11-19T09:44:09;2.80;;;1.90;;
10910;SDS011;5508;49.150;11.030;2023-11-19T09:47:11;2.60;;;0.97;;
10910;SDS011;5508;49.150;11.030;2023-11-19T09:50:15;1.30;;;1.00;;
10910;SDS011;5508;49.150;11.030;2023-11-19T09:53:20;2.80;;;1.87;;
10910;SDS011;5508;49.150;11.030;2023-11-19T09:56:21;1.00;;;0.90;;
10910;SDS011;5508;49.150;11.030;2023-11-19T09:59:22;1.70;;;1.43;;
10910;SDS011;5508;49.150;11.030;2023-11-19T10:02:23;1.60;;;1.37;;
10910;SDS011;5508;49.150;11.030;2023-11-19T10:05:27;1.23;;;1.13;;
10910;SDS011;5508;49.150;11.030;2023-11-19T10:08:27;4.00;;;3.43;;
10910;SDS011;5508;49.150;11.030;2023-11-19T10:11:29;19.73;;;17.67;;
10910;SDS011;5508;49.150;11.030;2023-11-19T10:14:29;5.33;;;4.83;;
10910;SDS011;5508;49.150;11.030;2023-11-19T10:17:35;2.03;;;1.03;;
10910;SDS011;5508;49.150;11.030;2023-11-19T10:20:36;2.30;;;0.90;;
10910;SDS011;5508;49.150;11.030;2023-11-19T10:23:49;2.20;;;2.00;;
10910;SDS011;5508;49.150;11.030;2023-11-19T10:27:02;4.43;;;3.33;;
10910;SDS011;5508;49.150;11.030;2023-11-19T10:30:08;2.03;;;1.83;;
10910;SDS011;5508;49.150;11.030;2023-11-19T10:33:11;1.20;;;1.03;;
10910;SDS011;5508;49.150;11.030;2023-11-19T10:36:17;6.17;;;2.80;;
10910;SDS011;5508;49.150;11.030;2023-11-19T10:39:18;2.67;;;2.20;;
10910;SDS011;5508;49.150;11.030;2023-11-19T10:42:18;2.60;;;0.70;;
10910;SDS011;5508;49.150;11.030;2023-11-19T10:45:22;2.13;;;1.80;;
10910;SDS011;5508;49.150;11.030;2023-11-19T10:48:33;1.13;;;0.53;;
10910;SDS011;5508;49.150;11.030;2023-11-19T10:51:35;3.47;;;2.50;;
10910;SDS011;5508;49.150;11.030;2023-11-19T10:54:35;2.37;;;1.10;;
10910;SDS011;5508;49.150;11.030;2023-11-19T10:57:42;0.77;;;0.60;;
10910;SDS011;5508;49.150;11.030;2023-11-19T11:00:46;1.50;;;1.40;;
10910;SDS011;5508;49.150;11.030;2023-11-19T11:03:51;2.73;;;0.77;;
10910;SDS011;5508;49.150;11.030;2023-11-19T11:06:54;1.17;;;0.80;;
10910;SDS011;5508;49.150;11.030;2023-11-19T11:09:58;7.40;;;2.47;;
10910;SDS011;5508;49.150;11.030;2023-11-19T11:13:02;1.53;;;0.87;;
10910;SDS011;5508;49.150;11.030;2023-11-19T11:16:04;3.13;;;2.47;;
10910;SDS011;5508;49.150;11.030;2023-11-19T11:19:07;1.90;;;0.80;;
10910;SDS011;5508;49.150;11.030;2023-11-19T11:22:09;3.27;;;1.03;;
10910;SDS011;5508;49.150;11.030;2023-11-19T11:25:47;1.10;;;0.93;;
10910;SDS011;5508;49.150;11.030;2023-11-19T11:28:48;2.20;;;1.13;;
10910;SDS011;5508;49.150;11.030;2023-11-19T11:38:53;1.53;;;1.23;;
10910;SDS011;5508;49.150;11.030;2023-11-19T11:45:17;4.83;;;1.90;;
10910;SDS011;5508;49.150;11.030;2023-11-19T11:48:20;1.43;;;0.80;;
10910;SDS011;5508;49.150;11.030;2023-11-19T11:54:45;2.37;;;2.00;;
10910;SDS011;5508;49.150;11.030;2023-11-19T11:57:46;1.90;;;1.30;;
10910;SDS011;5508;49.150;11.030;2023-11-19T12:00:48;6.27;;;3.93;;
10910;SDS011;5508;49.150;11.030;2023-11-19T12:03:49;7.33;;;4.80;;
10910;SDS011;5508;49.150;11.030;2023-11-19T12:07:06;1.77;;;1.33;;
10910;SDS011;5508;49.150;11.030;2023-11-19T12:10:12;3.13;;;2.67;;
10910;SDS011;5508;49.150;11.030;2023-11-19T12:13:13;2.80;;;1.20;;
10910;SDS011;5508;49.150;11.030;2023-11-19T12:16:14;1.97;;;1.50;;
10910;SDS011;5508;49.150;11.030;2023-11-19T12:19:16;2.30;;;1.40;;
10910;SDS011;5508;49.150;11.030;2023-11-19T12:22:18;3.57;;;2.70;;
10910;SDS011;5508;49.150;11.030;2023-11-19T12:25:19;2.47;;;1.80;;
10910;SDS011;5508;49.150;11.030;2023-11-19T12:28:20;6.67;;;5.13;;
10910;SDS011;5508;49.150;11.030;2023-11-19T12:31:21;4.00;;;3.40;;
10910;SDS011;5508;49.150;11.030;2023-11-19T12:34:21;3.87;;;2.00;;
10910;SDS011;5508;49.150;11.030;2023-11-19T12:37:23;5.33;;;3.40;;
10910;SDS011;5508;49.150;11.030;2023-11-19T12:40:24;4.40;;;3.50;;
10910;SDS011;5508;49.150;11.030;2023-11-19T12:43:25;5.53;;;2.30;;
10910;SDS011;5508;49.150;11.030;2023-11-19T12:46:26;6.10;;;4.23;;
10910;SDS011;5508;49.150;11.030;2023-11-19T12:49:27;4.23;;;3.63;;
10910;SDS011;5508;49.150;11.030;2023-11-19T12:52:28;5.73;;;3.33;;
10910;SDS011;5508;49.150;11.030;2023-11-19T12:55:29;6.67;;;4.10;;
10910;SDS011;5508;49.150;11.030;2023-11-19T12:58:33;9.17;;;3.60;;
10910;SDS011;5508;49.150;11.030;2023-11-19T13:01:36;2.03;;;1.37;;
10910;SDS011;5508;49.150;11.030;2023-11-19T13:04:38;3.60;;;1.40;;
10910;SDS011;5508;49.150;11.030;2023-11-19T13:07:39;5.33;;;2.10;;
10910;SDS011;5508;49.150;11.030;2023-11-19T13:13:55;2.97;;;1.17;;
10910;SDS011;5508;49.150;11.030;2023-11-19T13:17:00;4.40;;;1.50;;
10910;SDS011;5508;49.150;11.030;2023-11-19T13:20:01;1.37;;;0.87;;
10910;SDS011;5508;49.150;11.030;2023-11-19T13:23:04;2.33;;;1.63;;
10910;SDS011;5508;49.150;11.030;2023-11-19T13:26:06;3.37;;;1.00;;
10910;SDS011;5508;49.150;11.030;2023-11-19T13:29:07;2.87;;;1.10;;
10910;SDS011;5508;49.150;11.030;2023-11-19T13:32:10;10.30;;;1.00;;
10910;SDS011;5508;49.150;11.030;2023-11-19T13:35:10;1.07;;;0.70;;
10910;SDS011;5508;49.150;11.030;2023-11-19T13:38:11;1.20;;;0.77;;
10910;SDS011;5508;49.150;11.030;2023-11-19T13:41:12;1.23;;;0.90;;
10910;SDS011;5508;49.150;11.030;2023-11-19T13:44:13;2.23;;;1.03;;
10910;SDS011;5508;49.150;11.030;2023-11-19T13:47:14;0.97;;;0.73;;
10910;SDS011;5508;49.150;11.030;2023-11-19T13:50:15;3.83;;;1.37;;
10910;SDS011;5508;49.150;11.030;2023-11-19T13:53:16;1.63;;;0.83;;
10910;SDS011;5508;49.150;11.030;2023-11-19T13:56:17;3.23;;;1.73;;
10910;SDS011;5508;49.150;11.030;2023-11-19T13:59:18;4.30;;;1.80;;
10910;SDS011;5508;49.150;11.030;2023-11-19T14:02:18;2.70;;;0.93;;
10910;SDS011;5508;49.150;11.030;2023-11-19T14:05:19;4.27;;;1.93;;
10910;SDS011;5508;49.150;11.030;2023-11-19T14:08:20;4.13;;;1.17;;
10910;SDS011;5508;49.150;11.030;2023-11-19T14:11:20;5.27;;;2.87;;
10910;SDS011;5508;49.150;11.030;2023-11-19T14:14:21;2.50;;;1.70;;
10910;SDS011;5508;49.150;11.030;2023-11-19T14:17:21;3.27;;;1.20;;
10910;SDS011;5508;49.150;11.030;2023-11-19T14:20:22;2.87;;;1.67;;
10910;SDS011;5508;49.150;11.030;2023-11-19T14:23:23;1.80;;;1.07;;
10910;SDS011;5508;49.150;11.030;2023-11-19T14:26:24;1.83;;;1.03;;
10910;SDS011;5508;49.150;11.030;2023-11-19T14:29:24;2.73;;;0.90;;
10910;SDS011;5508;49.150;11.030;2023-11-19T14:32:31;1.03;;;0.73;;
10910;SDS011;5508;49.150;11.030;2023-11-19T14:35:32;2.60;;;1.37;;
10910;SDS011;5508;49.150;11.030;2023-11-19T14:38:33;0.87;;;0.73;;
10910;SDS011;5508;49.150;11.030;2023-11-19T14:41:34;4.13;;;3.70;;
10910;SDS011;5508;49.150;11.030;2023-11-19T14:44:34;20.67;;;18.47;;
10910;SDS011;5508;49.150;11.030;2023-11-19T14:47:36;2.57;;;1.43;;
10910;SDS011;5508;49.150;11.030;2023-11-19T14:50:36;3.53;;;2.80;;
10910;SDS011;5508;49.150;11.030;2023-11-19T14:53:37;4.23;;;2.50;;
10910;SDS011;5508;49.150;11.030;2023-11-19T14:56:38;12.17;;;7.40;;
10910;SDS011;5508;49.150;11.030;2023-11-19T14:59:38;7.93;;;2.90;;
10910;SDS011;5508;49.150;11.030;2023-11-19T15:02:40;4.93;;;2.40;;
10910;SDS011;5508;49.150;11.030;2023-11-19T15:05:41;7.10;;;2.30;;
10910;SDS011;5508;49.150;11.030;2023-11-19T15:08:42;3.57;;;2.07;;
10910;SDS011;5508;49.150;11.030;2023-11-19T15:11:43;3.27;;;1.40;;
10910;SDS011;5508;49.150;11.030;2023-11-19T15:14:46;2.47;;;1.80;;
10910;SDS011;5508;49.150;11.030;2023-11-19T15:17:46;2.47;;;1.27;;
10910;SDS011;5508;49.150;11.030;2023-11-19T15:20:47;2.60;;;1.10;;
10910;SDS011;5508;49.150;11.030;2023-11-19T15:23:47;3.00;;;1.20;;
10910;SDS011;5508;49.150;11.030;2023-11-19T15:26:48;1.83;;;1.60;;
10910;SDS011;5508;49.150;11.030;2023-11-19T15:29:48;2.50;;;1.87;;
10910;SDS011;5508;49.150;11.030;2023-11-19T15:32:49;5.40;;;2.40;;
10910;SDS011;5508;49.150;11.030;2023-11-19T15:35:50;3.90;;;1.60;;
10910;SDS011;5508;49.150;11.030;2023-11-19T15:38:50;4.90;;;3.23;;
10910;SDS011;5508;49.150;11.030;2023-11-19T15:41:51;6.23;;;3.77;;
10910;SDS011;5508;49.150;11.030;2023-11-19T15:44:51;2.50;;;1.53;;
10910;SDS011;5508;49.150;11.030;2023-11-19T15:47:52;2.70;;;1.20;;
10910;SDS011;5508;49.150;11.030;2023-11-19T15:50:53;2.27;;;1.43;;
10910;SDS011;5508;49.150;11.030;2023-11-19T15:53:53;3.27;;;1.30;;
10910;SDS011;5508;49.150;11.030;2023-11-19T15:56:54;3.03;;;1.77;;
10910;SDS011;5508;49.150;11.030;2023-11-19T15:59:54;4.67;;;2.40;;
10910;SDS011;5508;49.150;11.030;2023-11-19T16:02:55;6.07;;;2.20;;
10910;SDS011;5508;49.150;11.030;2023-11-19T16:05:56;5.30;;;3.23;;
10910;SDS011;5508;49.150;11.030;2023-11-19T16:08:57;3.70;;;2.03;;
10910;SDS011;5508;49.150;11.030;2023-11-19T16:11:58;7.70;;;6.30;;
10910;SDS011;5508;49.150;11.030;2023-11-19T16:14:59;32.70;;;24.07;;
10910;SDS011;5508;49.150;11.030;2023-11-19T16:18:00;60.70;;;35.43;;
10910;SDS011;5508;49.150;11.030;2023-11-19T16:21:01;114.13;;;65.40;;
10910;SDS011;5508;49.150;11.030;2023-11-19T16:24:01;36.07;;;27.47;;
10910;SDS011;5508;49.150;11.030;2023-11-19T16:27:04;3.93;;;2.37;;
10910;SDS011;5508;49.150;11.030;2023-11-19T16:30:05;7.67;;;6.93;;
10910;SDS011;5508;49.150;11.030;2023-11-19T16:33:06;5.40;;;3.50;;
10910;SDS011;5508;49.150;11.030;2023-11-19T16:36:07;10.97;;;9.97;;
10910;SDS011;5508;49.150;11.030;2023-11-19T16:39:08;19.10;;;17.30;;
10910;SDS011;5508;49.150;11.030;2023-11-19T16:42:10;13.57;;;7.30;;
10910;SDS011;5508;49.150;11.030;2023-11-19T16:45:11;9.73;;;8.73;;
10910;SDS011;5508;49.150;11.030;2023-11-19T16:48:12;11.17;;;3.17;;
10910;SDS011;5508;49.150;11.030;2023-11-19T16:51:13;5.77;;;3.00;;
10910;SDS011;5508;49.150;11.030;2023-11-19T16:54:14;3.20;;;2.40;;
10910;SDS011;5508;49.150;11.030;2023-11-19T16:57:14;3.20;;;2.20;;
10910;SDS011;5508;49.150;11.030;2023-11-19T17:00:16;2.33;;;1.43;;
10910;SDS011;5508;49.150;11.030;2023-11-19T17:03:18;4.37;;;3.43;;
10910;SDS011;5508;49.150;11.030;2023-11-19T17:06:18;2.60;;;2.07;;
10910;SDS011;5508;49.150;11.030;2023-11-19T17:09:19;4.57;;;1.73;;
10910;SDS011;5508;49.150;11.030;2023-11-19T17:12:20;2.70;;;1.80;;
10910;SDS011;5508;49.150;11.030;2023-11-19T17:15:20;2.67;;;1.30;;
10910;SDS011;5508;49.150;11.030;2023-11-19T17:18:21;5.60;;;3.00;;
10910;SDS011;5508;49.150;11.030;2023-11-19T17:21:22;4.30;;;2.60;;
10910;SDS011;5508;49.150;11.030;2023-11-19T17:24:23;5.50;;;3.00;;
10910;SDS011;5508;49.150;11.030;2023-11-19T17:27:24;5.07;;;2.50;;
10910;SDS011;5508;49.150;11.030;2023-11-19T17:30:27;3.63;;;1.63;;
10910;SDS011;5508;49.150;11.030;2023-11-19T17:33:27;4.57;;;2.60;;
10910;SDS011;5508;49.150;11.030;2023-11-19T17:36:28;12.53;;;6.60;;
10910;SDS011;5508;49.150;11.030;2023-11-19T17:39:30;3.37;;;2.13;;
10910;SDS011;5508;49.150;11.030;2023-11-19T17:42:32;2.73;;;2.23;;
10910;SDS011;5508;49.150;11.030;2023-11-19T17:45:33;2.20;;;1.40;;
10910;SDS011;5508;49.150;11.030;2023-11-19T17:48:35;6.77;;;5.97;;
10910;SDS011;5508;49.150;11.030;2023-11-19T17:51:36;5.10;;;2.63;;
10910;SDS011;5508;49.150;11.030;2023-11-19T17:54:37;3.37;;;2.13;;
10910;SDS011;5508;49.150;11.030;2023-11-19T17:57:38;4.47;;;1.50;;
10910;SDS011;5508;49.150;11.030;2023-11-19T18:00:42;5.07;;;1.70;;
10910;SDS011;5508;49.150;11.030;2023-11-19T18:03:43;6.90;;;2.03;;
10910;SDS011;5508;49.150;11.030;2023-11-19T18:06:43;2.67;;;1.57;;
10910;SDS011;5508;49.150;11.030;2023-11-19T18:09:44;4.13;;;1.30;;
10910;SDS011;5508;49.150;11.030;2023-11-19T18:12:45;3.13;;;1.80;;
10910;SDS011;5508;49.150;11.030;2023-11-19T18:15:45;2.17;;;1.30;;
10910;SDS011;5508;49.150;11.030;2023-11-19T18:18:46;34.67;;;15.43;;
10910;SDS011;5508;49.150;11.030;2023-11-19T18:21:47;38.13;;;13.73;;
10910;SDS011;5508;49.150;11.030;2023-11-19T18:24:47;14.40;;;5.50;;
10910;SDS011;5508;49.150;11.030;2023-11-19T18:27:48;14.27;;;5.20;;